sensor_id;sensor_type;location;lat;lon;timestamp;P1;durP1;ratioP1;P2;durP2;ratioP2
26177;SDS011;13924;47.670;10.310;2023-05-27T00:00:39;16.3;;;13.8;;
26177;SDS011;13924;47.670;10.310;2023-05-27T00:15:45;19.9;;;14.3;;
26177;SDS011;13924;47.670;10.310;2023-05-27T00:30:44;15.8;;;13.3;;
26177;SDS011;13924;47.670;10.310;2023-05-27T00:45:48;19.0;;;14.8;;
26177;SDS011;13924;47.670;10.310;2023-05-27T01:00:42;19.4;;;13.0;;
26177;SDS011;13924;47.670;10.310;2023-05-27T01:01:27;18.2;;;13.7;;
26177;SDS011;13924;47.670;10.310;2023-05-27T01:15:46;19.8;;;13.6;;
26177;SDS011;13924;47.670;10.310;2023-05-27T01:30:43;15.9;;;13.1;;
26177;SDS011;13924;47.670;10.310;2023-05-27T01:45:44;15.8;;;13.6;;
26177;SDS011;13924;47.670;10.310;2023-05-27T02:00:44;17.5;;;12.8;;
26177;SDS011;13924;47.670;10.310;2023-05-27T02:15:45;15.8;;;12.9;;
26177;SDS011;13924;47.670;10.310;2023-05-27T02:30:47;18.9;;;13.4;;
26177;SDS011;13924;47.670;10.310;2023-05-27T02:45:46;16.5;;;12.5;;
26177;SDS011;13924;47.670;10.310;2023-05-27T03:00:47;18.5;;;12.5;;
26177;SDS011;13924;47.670;10.310;2023-05-27T03:15:47;20.7;;;12.2;;
26177;SDS011;13924;47.670;10.310;2023-05-27T03:22:38;16.6;;;12.9;;
26177;SDS011;13924;47.670;10.310;2023-05-27T03:37:39;19.5;;;11.9;;
26177;SDS011;13924;47.670;10.310;2023-05-27T03:52:40;15.8;;;12.2;;
26177;SDS011;13924;47.670;10.310;2023-05-27T04:07:40;17.3;;;12.6;;
26177;SDS011;13924;47.670;10.310;2023-05-27T04:22:41;22.1;;;13.9;;
26177;SDS011;13924;47.670;10.310;2023-05-27T04:37:54;16.4;;;13.1;;
26177;SDS011;13924;47.670;10.310;2023-05-27T04:52:45;19.4;;;13.3;;
26177;SDS011;13924;47.670;10.310;2023-05-27T05:07:43;17.3;;;12.8;;
26177;SDS011;13924;47.670;10.310;2023-05-27T05:22:43;18.4;;;12.8;;
26177;SDS011;13924;47.670;10.310;2023-05-27T05:37:44;16.4;;;13.4;;
26177;SDS011;13924;47.670;10.310;2023-05-27T05:52:45;17.2;;;12.8;;
26177;SDS011;13924;47.670;10.310;2023-05-27T06:07:45;16.6;;;13.5;;
26177;SDS011;13924;47.670;10.310;2023-05-27T06:22:49;20.7;;;13.1;;
26177;SDS011;13924;47.670;10.310;2023-05-27T06:37:46;16.6;;;12.6;;
26177;SDS011;13924;47.670;10.310;2023-05-27T06:52:49;17.5;;;13.0;;
26177;SDS011;13924;47.670;10.310;2023-05-27T07:07:48;18.4;;;12.5;;
26177;SDS011;13924;47.670;10.310;2023-05-27T07:22:51;15.7;;;12.5;;
26177;SDS011;13924;47.670;10.310;2023-05-27T07:37:49;17.8;;;13.7;;
26177;SDS011;13924;47.670;10.310;2023-05-27T07:52:51;18.5;;;12.3;;
26177;SDS011;13924;47.670;10.310;2023-05-27T08:07:51;15.7;;;12.0;;
26177;SDS011;13924;47.670;10.310;2023-05-27T08:22:51;15.6;;;11.8;;
26177;SDS011;13924;47.670;10.310;2023-05-27T08:37:52;17.4;;;12.4;;
26177;SDS011;13924;47.670;10.310;2023-05-27T08:52:53;16.2;;;10.4;;
26177;SDS011;13924;47.670;10.310;2023-05-27T09:07:54;16.6;;;11.0;;
26177;SDS011;13924;47.670;10.310;2023-05-27T09:22:56;15.9;;;10.0;;
26177;SDS011;13924;47.670;10.310;2023-05-27T09:38:04;15.4;;;9.7;;
26177;SDS011;13924;47.670;10.310;2023-05-27T09:52:55;12.5;;;9.1;;
26177;SDS011;13924;47.670;10.310;2023-05-27T10:07:57;12.7;;;10.0;;
26177;SDS011;13924;47.670;10.310;2023-05-27T10:22:57;11.6;;;8.7;;
26177;SDS011;13924;47.670;10.310;2023-05-27T10:37:58;12.6;;;7.9;;
26177;SDS011;13924;47.670;10.310;2023-05-27T10:52:59;11.5;;;7.5;;
26177;SDS011;13924;47.670;10.310;2023-05-27T11:08:00;11.1;;;7.9;;
26177;SDS011;13924;47.670;10.310;2023-05-27T11:22:59;9.5;;;7.5;;
26177;SDS011;13924;47.670;10.310;2023-05-27T11:38:00;10.7;;;7.8;;
26177;SDS011;13924;47.670;10.310;2023-05-27T11:53:03;8.8;;;6.9;;
26177;SDS011;13924;47.670;10.310;2023-05-27T12:08:04;10.4;;;7.3;;
26177;SDS011;13924;47.670;10.310;2023-05-27T12:23:04;7.2;;;6.5;;
26177;SDS011;13924;47.670;10.310;2023-05-27T12:38:04;13.9;;;6.9;;
26177;SDS011;13924;47.670;10.310;2023-05-27T12:53:04;9.8;;;7.3;;
26177;SDS011;13924;47.670;10.310;2023-05-27T13:08:05;11.6;;;6.8;;
26177;SDS011;13924;47.670;10.310;2023-05-27T13:23:10;8.7;;;6.5;;
26177;SDS011;13924;47.670;10.310;2023-05-27T13:38:07;8.7;;;6.0;;
26177;SDS011;13924;47.670;10.310;2023-05-27T13:53:09;7.6;;;6.5;;
26177;SDS011;13924;47.670;10.310;2023-05-27T14:08:12;13.9;;;6.6;;
26177;SDS011;13924;47.670;10.310;2023-05-27T14:23:08;10.9;;;7.0;;
26177;SDS011;13924;47.670;10.310;2023-05-27T14:38:10;10.5;;;6.8;;
26177;SDS011;13924;47.670;10.310;2023-05-27T14:53:19;7.5;;;6.7;;
26177;SDS011;13924;47.670;10.310;2023-05-27T15:08:10;7.9;;;6.8;;
26177;SDS011;13924;47.670;10.310;2023-05-27T15:23:12;8.5;;;6.4;;
26177;SDS011;13924;47.670;10.310;2023-05-27T15:38:17;8.8;;;6.5;;
26177;SDS011;13924;47.670;10.310;2023-05-27T15:53:22;15.1;;;7.1;;
26177;SDS011;13924;47.670;10.310;2023-05-27T16:08:12;8.6;;;7.2;;
26177;SDS011;13924;47.670;10.310;2023-05-27T16:23:12;12.4;;;7.4;;
26177;SDS011;13924;47.670;10.310;2023-05-27T16:38:13;8.3;;;6.6;;
26177;SDS011;13924;47.670;10.310;2023-05-27T16:53:14;8.0;;;6.5;;
26177;SDS011;13924;47.670;10.310;2023-05-27T17:08:15;9.1;;;7.2;;
26177;SDS011;13924;47.670;10.310;2023-05-27T17:23:16;8.8;;;6.1;;
26177;SDS011;13924;47.670;10.310;2023-05-27T17:38:16;9.1;;;6.7;;
26177;SDS011;13924;47.670;10.310;2023-05-27T17:53:17;8.0;;;6.4;;
26177;SDS011;13924;47.670;10.310;2023-05-27T18:08:17;8.9;;;5.9;;
26177;SDS011;13924;47.670;10.310;2023-05-27T18:23:26;11.1;;;6.0;;
26177;SDS011;13924;47.670;10.310;2023-05-27T18:38:19;9.3;;;6.2;;
26177;SDS011;13924;47.670;10.310;2023-05-27T18:53:29;12.6;;;6.1;;
26177;SDS011;13924;47.670;10.310;2023-05-27T19:08:33;9.5;;;6.1;;
26177;SDS011;13924;47.670;10.310;2023-05-27T19:23:21;10.3;;;5.5;;
26177;SDS011;13924;47.670;10.310;2023-05-27T19:38:24;10.0;;;5.5;;
26177;SDS011;13924;47.670;10.310;2023-05-27T19:53:54;12.0;;;5.8;;
26177;SDS011;13924;47.670;10.310;2023-05-27T20:08:22;12.9;;;6.1;;
26177;SDS011;13924;47.670;10.310;2023-05-27T20:23:22;8.1;;;6.1;;
26177;SDS011;13924;47.670;10.310;2023-05-27T20:38:24;11.5;;;6.3;;
26177;SDS011;13924;47.670;10.310;2023-05-27T20:53:31;13.5;;;5.9;;
26177;SDS011;13924;47.670;10.310;2023-05-27T21:08:26;14.3;;;6.2;;
26177;SDS011;13924;47.670;10.310;2023-05-27T21:23:26;9.1;;;5.9;;
26177;SDS011;13924;47.670;10.310;2023-05-27T21:38:30;12.0;;;5.6;;
26177;SDS011;13924;47.670;10.310;2023-05-27T21:53:27;8.6;;;5.5;;
26177;SDS011;13924;47.670;10.310;2023-05-27T22:00:39;10.7;;;5.3;;
26177;SDS011;13924;47.670;10.310;2023-05-27T22:15:40;10.2;;;5.2;;
26177;SDS011;13924;47.670;10.310;2023-05-27T22:30:40;9.0;;;5.6;;
26177;SDS011;13924;47.670;10.310;2023-05-27T22:45:41;13.9;;;5.9;;
26177;SDS011;13924;47.670;10.310;2023-05-27T23:00:47;11.4;;;5.4;;
26177;SDS011;13924;47.670;10.310;2023-05-27T23:15:49;10.2;;;5.6;;
26177;SDS011;13924;47.670;10.310;2023-05-27T23:45:48;9.1;;;5.7;;
